sensor_id;sensor_type;location;lat;lon;timestamp;P1;durP1;ratioP1;P2;durP2;ratioP2
71104;SDS011;58760;48.716;8.962;2023-06-26T00:01:26;9.52;;;5.90;;
71104;SDS011;58760;48.716;8.962;2023-06-26T00:03:54;10.10;;;5.68;;
71104;SDS011;58760;48.716;8.962;2023-06-26T00:08:46;10.05;;;5.95;;
71104;SDS011;58760;48.716;8.962;2023-06-26T00:13:36;9.25;;;5.38;;
71104;SDS011;58760;48.716;8.962;2023-06-26T00:18:28;10.77;;;5.70;;
71104;SDS011;58760;48.716;8.962;2023-06-26T00:23:22;12.13;;;5.88;;
71104;SDS011;58760;48.716;8.962;2023-06-26T00:25:47;9.57;;;5.60;;
71104;SDS011;58760;48.716;8.962;2023-06-26T00:30:38;10.20;;;5.68;;
71104;SDS011;58760;48.716;8.962;2023-06-26T00:35:29;9.68;;;5.50;;
71104;SDS011;58760;48.716;8.962;2023-06-26T00:40:20;10.57;;;5.45;;
71104;SDS011;58760;48.716;8.962;2023-06-26T00:45:10;10.90;;;5.67;;
71104;SDS011;58760;48.716;8.962;2023-06-26T00:47:36;8.93;;;5.50;;
71104;SDS011;58760;48.716;8.962;2023-06-26T00:50:02;9.60;;;5.97;;
71104;SDS011;58760;48.716;8.962;2023-06-26T00:52:27;9.13;;;5.68;;
71104;SDS011;58760;48.716;8.962;2023-06-26T00:57:18;9.57;;;5.65;;
71104;SDS011;58760;48.716;8.962;2023-06-26T00:59:44;8.40;;;5.45;;
71104;SDS011;58760;48.716;8.962;2023-06-26T01:04:35;10.57;;;5.45;;
71104;SDS011;58760;48.716;8.962;2023-06-26T01:07:01;9.18;;;5.35;;
71104;SDS011;58760;48.716;8.962;2023-06-26T01:09:28;10.73;;;5.97;;
71104;SDS011;58760;48.716;8.962;2023-06-26T01:11:54;9.43;;;5.22;;
71104;SDS011;58760;48.716;8.962;2023-06-26T01:14:20;8.52;;;5.30;;
71104;SDS011;58760;48.716;8.962;2023-06-26T01:16:45;9.18;;;5.88;;
71104;SDS011;58760;48.716;8.962;2023-06-26T01:19:25;9.80;;;5.82;;
71104;SDS011;58760;48.716;8.962;2023-06-26T01:21:58;10.10;;;6.00;;
71104;SDS011;58760;48.716;8.962;2023-06-26T01:24:37;10.75;;;5.63;;
71104;SDS011;58760;48.716;8.962;2023-06-26T01:27:04;9.07;;;5.75;;
71104;SDS011;58760;48.716;8.962;2023-06-26T01:29:31;9.00;;;5.95;;
71104;SDS011;58760;48.716;8.962;2023-06-26T01:31:58;10.93;;;6.70;;
71104;SDS011;58760;48.716;8.962;2023-06-26T01:34:24;10.20;;;5.93;;
71104;SDS011;58760;48.716;8.962;2023-06-26T01:36:51;8.95;;;5.70;;
71104;SDS011;58760;48.716;8.962;2023-06-26T01:39:19;9.57;;;5.63;;
71104;SDS011;58760;48.716;8.962;2023-06-26T01:41:45;10.52;;;5.28;;
71104;SDS011;58760;48.716;8.962;2023-06-26T01:46:48;9.77;;;5.55;;
71104;SDS011;58760;48.716;8.962;2023-06-26T01:49:30;11.82;;;5.88;;
71104;SDS011;58760;48.716;8.962;2023-06-26T01:52:18;11.05;;;6.03;;
71104;SDS011;58760;48.716;8.962;2023-06-26T01:57:40;9.05;;;5.72;;
71104;SDS011;58760;48.716;8.962;2023-06-26T02:00:07;9.15;;;5.80;;
71104;SDS011;58760;48.716;8.962;2023-06-26T02:02:36;10.13;;;6.10;;
71104;SDS011;58760;48.716;8.962;2023-06-26T02:05:01;9.15;;;5.53;;
71104;SDS011;58760;48.716;8.962;2023-06-26T02:07:27;10.82;;;6.47;;
71104;SDS011;58760;48.716;8.962;2023-06-26T02:09:52;10.10;;;5.95;;
71104;SDS011;58760;48.716;8.962;2023-06-26T02:12:17;12.18;;;6.32;;
71104;SDS011;58760;48.716;8.962;2023-06-26T02:17:08;10.27;;;5.87;;
71104;SDS011;58760;48.716;8.962;2023-06-26T02:19:33;9.90;;;5.93;;
71104;SDS011;58760;48.716;8.962;2023-06-26T02:24:24;11.87;;;6.20;;
71104;SDS011;58760;48.716;8.962;2023-06-26T02:26:49;10.15;;;6.05;;
71104;SDS011;58760;48.716;8.962;2023-06-26T02:31:40;12.53;;;6.17;;
71104;SDS011;58760;48.716;8.962;2023-06-26T02:34:06;10.60;;;6.28;;
71104;SDS011;58760;48.716;8.962;2023-06-26T02:36:31;9.55;;;5.90;;
71104;SDS011;58760;48.716;8.962;2023-06-26T02:38:57;11.50;;;6.35;;
71104;SDS011;58760;48.716;8.962;2023-06-26T02:41:22;10.30;;;6.07;;
71104;SDS011;58760;48.716;8.962;2023-06-26T02:46:13;9.97;;;6.27;;
71104;SDS011;58760;48.716;8.962;2023-06-26T02:48:38;10.48;;;5.90;;
71104;SDS011;58760;48.716;8.962;2023-06-26T02:51:04;11.98;;;6.53;;
71104;SDS011;58760;48.716;8.962;2023-06-26T02:53:29;10.00;;;6.20;;
71104;SDS011;58760;48.716;8.962;2023-06-26T02:55:56;10.60;;;6.25;;
71104;SDS011;58760;48.716;8.962;2023-06-26T02:58:21;9.93;;;6.20;;
71104;SDS011;58760;48.716;8.962;2023-06-26T03:00:46;10.52;;;6.30;;
71104;SDS011;58760;48.716;8.962;2023-06-26T03:03:12;10.30;;;5.95;;
71104;SDS011;58760;48.716;8.962;2023-06-26T03:05:38;11.20;;;6.03;;
71104;SDS011;58760;48.716;8.962;2023-06-26T03:08:03;10.48;;;6.50;;
71104;SDS011;58760;48.716;8.962;2023-06-26T03:10:29;11.40;;;6.15;;
71104;SDS011;58760;48.716;8.962;2023-06-26T03:12:54;9.95;;;6.20;;
71104;SDS011;58760;48.716;8.962;2023-06-26T03:15:19;10.88;;;6.35;;
71104;SDS011;58760;48.716;8.962;2023-06-26T03:17:45;9.93;;;5.85;;
71104;SDS011;58760;48.716;8.962;2023-06-26T03:20:10;9.82;;;5.75;;
71104;SDS011;58760;48.716;8.962;2023-06-26T03:22:36;12.30;;;6.35;;
71104;SDS011;58760;48.716;8.962;2023-06-26T03:25:02;10.18;;;6.53;;
71104;SDS011;58760;48.716;8.962;2023-06-26T03:27:28;11.10;;;6.15;;
71104;SDS011;58760;48.716;8.962;2023-06-26T03:29:53;10.13;;;6.20;;
71104;SDS011;58760;48.716;8.962;2023-06-26T03:32:19;12.00;;;7.22;;
71104;SDS011;58760;48.716;8.962;2023-06-26T03:34:44;10.52;;;6.35;;
71104;SDS011;58760;48.716;8.962;2023-06-26T03:37:09;10.68;;;6.03;;
71104;SDS011;58760;48.716;8.962;2023-06-26T03:39:34;10.00;;;6.22;;
71104;SDS011;58760;48.716;8.962;2023-06-26T03:42:00;9.95;;;6.43;;
71104;SDS011;58760;48.716;8.962;2023-06-26T03:44:26;11.10;;;6.53;;
71104;SDS011;58760;48.716;8.962;2023-06-26T03:49:17;10.77;;;6.10;;
71104;SDS011;58760;48.716;8.962;2023-06-26T03:51:43;11.20;;;6.30;;
71104;SDS011;58760;48.716;8.962;2023-06-26T03:54:09;12.10;;;6.38;;
71104;SDS011;58760;48.716;8.962;2023-06-26T03:56:35;10.20;;;6.35;;
71104;SDS011;58760;48.716;8.962;2023-06-26T03:59:00;10.80;;;6.70;;
71104;SDS011;58760;48.716;8.962;2023-06-26T04:01:25;11.07;;;6.10;;
71104;SDS011;58760;48.716;8.962;2023-06-26T04:03:51;11.55;;;6.40;;
71104;SDS011;58760;48.716;8.962;2023-06-26T04:06:16;11.60;;;6.38;;
71104;SDS011;58760;48.716;8.962;2023-06-26T04:08:41;10.25;;;6.20;;
71104;SDS011;58760;48.716;8.962;2023-06-26T04:11:07;10.52;;;6.40;;
71104;SDS011;58760;48.716;8.962;2023-06-26T04:13:32;10.45;;;5.82;;
71104;SDS011;58760;48.716;8.962;2023-06-26T04:15:57;10.38;;;6.30;;
71104;SDS011;58760;48.716;8.962;2023-06-26T04:18:23;11.52;;;6.40;;
71104;SDS011;58760;48.716;8.962;2023-06-26T04:23:37;15.38;;;6.07;;
71104;SDS011;58760;48.716;8.962;2023-06-26T04:26:03;10.55;;;5.72;;
71104;SDS011;58760;48.716;8.962;2023-06-26T04:28:30;10.52;;;6.13;;
71104;SDS011;58760;48.716;8.962;2023-06-26T04:30:56;10.25;;;6.18;;
71104;SDS011;58760;48.716;8.962;2023-06-26T04:33:22;9.85;;;5.57;;
71104;SDS011;58760;48.716;8.962;2023-06-26T04:38:14;9.63;;;6.13;;
71104;SDS011;58760;48.716;8.962;2023-06-26T04:40:40;11.13;;;6.30;;
71104;SDS011;58760;48.716;8.962;2023-06-26T04:43:06;12.80;;;5.95;;
71104;SDS011;58760;48.716;8.962;2023-06-26T04:45:31;11.40;;;6.32;;
71104;SDS011;58760;48.716;8.962;2023-06-26T04:47:56;9.48;;;5.97;;
71104;SDS011;58760;48.716;8.962;2023-06-26T04:50:22;10.75;;;6.13;;
71104;SDS011;58760;48.716;8.962;2023-06-26T04:52:48;12.65;;;6.47;;
71104;SDS011;58760;48.716;8.962;2023-06-26T04:55:13;10.23;;;6.05;;
71104;SDS011;58760;48.716;8.962;2023-06-26T04:57:38;12.70;;;6.55;;
71104;SDS011;58760;48.716;8.962;2023-06-26T05:00:04;9.77;;;6.05;;
71104;SDS011;58760;48.716;8.962;2023-06-26T05:02:34;9.30;;;5.60;;
71104;SDS011;58760;48.716;8.962;2023-06-26T05:07:25;10.37;;;6.00;;
71104;SDS011;58760;48.716;8.962;2023-06-26T05:09:51;9.65;;;5.90;;
71104;SDS011;58760;48.716;8.962;2023-06-26T05:12:16;9.70;;;5.75;;
71104;SDS011;58760;48.716;8.962;2023-06-26T05:14:41;10.50;;;5.80;;
71104;SDS011;58760;48.716;8.962;2023-06-26T05:17:07;11.35;;;6.40;;
71104;SDS011;58760;48.716;8.962;2023-06-26T05:19:32;9.45;;;6.13;;
71104;SDS011;58760;48.716;8.962;2023-06-26T05:21:57;11.30;;;5.95;;
71104;SDS011;58760;48.716;8.962;2023-06-26T05:24:24;11.93;;;6.63;;
71104;SDS011;58760;48.716;8.962;2023-06-26T05:26:51;10.73;;;6.35;;
71104;SDS011;58760;48.716;8.962;2023-06-26T05:31:42;11.57;;;5.82;;
71104;SDS011;58760;48.716;8.962;2023-06-26T05:34:10;10.30;;;5.60;;
71104;SDS011;58760;48.716;8.962;2023-06-26T05:36:36;15.40;;;6.15;;
71104;SDS011;58760;48.716;8.962;2023-06-26T05:39:03;12.05;;;5.45;;
71104;SDS011;58760;48.716;8.962;2023-06-26T05:43:54;11.40;;;5.22;;
71104;SDS011;58760;48.716;8.962;2023-06-26T05:48:45;12.47;;;5.50;;
71104;SDS011;58760;48.716;8.962;2023-06-26T05:53:36;9.48;;;4.90;;
71104;SDS011;58760;48.716;8.962;2023-06-26T05:56:01;10.65;;;5.07;;
71104;SDS011;58760;48.716;8.962;2023-06-26T05:58:27;9.82;;;5.03;;
71104;SDS011;58760;48.716;8.962;2023-06-26T06:03:18;8.40;;;4.80;;
71104;SDS011;58760;48.716;8.962;2023-06-26T06:08:08;10.93;;;5.00;;
71104;SDS011;58760;48.716;8.962;2023-06-26T06:12:59;10.18;;;5.03;;
71104;SDS011;58760;48.716;8.962;2023-06-26T06:17:50;8.60;;;5.00;;
71104;SDS011;58760;48.716;8.962;2023-06-26T06:22:42;8.50;;;4.88;;
71104;SDS011;58760;48.716;8.962;2023-06-26T06:27:33;11.60;;;5.00;;
71104;SDS011;58760;48.716;8.962;2023-06-26T06:32:23;8.68;;;5.03;;
71104;SDS011;58760;48.716;8.962;2023-06-26T06:34:48;8.68;;;4.70;;
71104;SDS011;58760;48.716;8.962;2023-06-26T06:39:39;9.13;;;5.37;;
71104;SDS011;58760;48.716;8.962;2023-06-26T06:44:30;9.75;;;4.82;;
71104;SDS011;58760;48.716;8.962;2023-06-26T06:46:58;9.57;;;5.10;;
71104;SDS011;58760;48.716;8.962;2023-06-26T06:51:48;7.93;;;4.50;;
71104;SDS011;58760;48.716;8.962;2023-06-26T06:56:41;8.80;;;4.53;;
71104;SDS011;58760;48.716;8.962;2023-06-26T07:01:31;6.45;;;3.65;;
71104;SDS011;58760;48.716;8.962;2023-06-26T07:03:57;6.68;;;3.97;;
71104;SDS011;58760;48.716;8.962;2023-06-26T07:06:22;7.15;;;4.35;;
71104;SDS011;58760;48.716;8.962;2023-06-26T07:08:48;7.60;;;4.22;;
71104;SDS011;58760;48.716;8.962;2023-06-26T07:11:13;6.82;;;3.90;;
71104;SDS011;58760;48.716;8.962;2023-06-26T07:13:39;7.45;;;3.72;;
71104;SDS011;58760;48.716;8.962;2023-06-26T07:16:04;6.95;;;4.25;;
71104;SDS011;58760;48.716;8.962;2023-06-26T07:18:30;6.70;;;3.60;;
71104;SDS011;58760;48.716;8.962;2023-06-26T07:20:55;6.93;;;3.95;;
71104;SDS011;58760;48.716;8.962;2023-06-26T07:23:21;8.75;;;3.58;;
71104;SDS011;58760;48.716;8.962;2023-06-26T07:25:46;8.55;;;3.80;;
71104;SDS011;58760;48.716;8.962;2023-06-26T07:28:11;6.65;;;4.13;;
71104;SDS011;58760;48.716;8.962;2023-06-26T07:30:37;5.88;;;3.45;;
71104;SDS011;58760;48.716;8.962;2023-06-26T07:33:03;6.65;;;3.92;;
71104;SDS011;58760;48.716;8.962;2023-06-26T07:35:28;7.78;;;3.63;;
71104;SDS011;58760;48.716;8.962;2023-06-26T07:37:54;6.80;;;3.78;;
71104;SDS011;58760;48.716;8.962;2023-06-26T07:40:19;8.32;;;3.80;;
71104;SDS011;58760;48.716;8.962;2023-06-26T07:42:45;6.10;;;3.53;;
71104;SDS011;58760;48.716;8.962;2023-06-26T07:45:11;8.75;;;3.72;;
71104;SDS011;58760;48.716;8.962;2023-06-26T07:47:40;8.18;;;3.50;;
71104;SDS011;58760;48.716;8.962;2023-06-26T07:50:06;6.32;;;3.53;;
71104;SDS011;58760;48.716;8.962;2023-06-26T07:52:32;6.70;;;3.85;;
71104;SDS011;58760;48.716;8.962;2023-06-26T07:54:57;8.23;;;3.65;;
71104;SDS011;58760;48.716;8.962;2023-06-26T07:57:23;6.68;;;3.75;;
71104;SDS011;58760;48.716;8.962;2023-06-26T07:59:48;6.75;;;3.88;;
71104;SDS011;58760;48.716;8.962;2023-06-26T08:02:15;7.30;;;3.90;;
71104;SDS011;58760;48.716;8.962;2023-06-26T08:04:41;6.28;;;3.65;;
71104;SDS011;58760;48.716;8.962;2023-06-26T08:07:06;6.80;;;3.63;;
71104;SDS011;58760;48.716;8.962;2023-06-26T08:09:32;7.60;;;3.50;;
71104;SDS011;58760;48.716;8.962;2023-06-26T08:11:58;6.88;;;3.95;;
71104;SDS011;58760;48.716;8.962;2023-06-26T08:14:24;9.70;;;4.40;;
71104;SDS011;58760;48.716;8.962;2023-06-26T08:16:50;8.73;;;4.10;;
71104;SDS011;58760;48.716;8.962;2023-06-26T08:19:15;7.90;;;4.30;;
71104;SDS011;58760;48.716;8.962;2023-06-26T08:21:45;6.70;;;3.90;;
71104;SDS011;58760;48.716;8.962;2023-06-26T08:24:11;6.68;;;3.72;;
71104;SDS011;58760;48.716;8.962;2023-06-26T08:26:38;8.95;;;4.10;;
71104;SDS011;58760;48.716;8.962;2023-06-26T08:29:03;7.07;;;4.20;;
71104;SDS011;58760;48.716;8.962;2023-06-26T08:31:34;8.70;;;4.45;;
71104;SDS011;58760;48.716;8.962;2023-06-26T08:34:01;7.00;;;4.28;;
71104;SDS011;58760;48.716;8.962;2023-06-26T08:36:27;7.32;;;4.30;;
71104;SDS011;58760;48.716;8.962;2023-06-26T08:38:52;7.32;;;4.18;;
71104;SDS011;58760;48.716;8.962;2023-06-26T08:41:18;7.15;;;4.30;;
71104;SDS011;58760;48.716;8.962;2023-06-26T08:43:43;9.95;;;4.10;;
71104;SDS011;58760;48.716;8.962;2023-06-26T08:46:08;7.07;;;3.88;;
71104;SDS011;58760;48.716;8.962;2023-06-26T08:48:34;7.53;;;3.97;;
71104;SDS011;58760;48.716;8.962;2023-06-26T08:51:05;8.93;;;4.63;;
71104;SDS011;58760;48.716;8.962;2023-06-26T08:53:39;6.82;;;4.35;;
71104;SDS011;58760;48.716;8.962;2023-06-26T08:56:12;8.10;;;4.47;;
71104;SDS011;58760;48.716;8.962;2023-06-26T08:58:42;7.35;;;4.45;;
71104;SDS011;58760;48.716;8.962;2023-06-26T09:01:08;10.70;;;4.07;;
71104;SDS011;58760;48.716;8.962;2023-06-26T09:03:33;6.43;;;4.30;;
71104;SDS011;58760;48.716;8.962;2023-06-26T09:05:59;9.30;;;4.68;;
71104;SDS011;58760;48.716;8.962;2023-06-26T09:08:24;11.48;;;4.07;;
71104;SDS011;58760;48.716;8.962;2023-06-26T09:10:51;7.10;;;4.18;;
71104;SDS011;58760;48.716;8.962;2023-06-26T09:13:16;7.55;;;4.43;;
71104;SDS011;58760;48.716;8.962;2023-06-26T09:15:44;6.60;;;4.00;;
71104;SDS011;58760;48.716;8.962;2023-06-26T09:18:10;7.78;;;4.10;;
71104;SDS011;58760;48.716;8.962;2023-06-26T09:20:36;6.72;;;4.07;;
71104;SDS011;58760;48.716;8.962;2023-06-26T09:23:02;7.07;;;4.05;;
71104;SDS011;58760;48.716;8.962;2023-06-26T09:25:28;6.60;;;4.40;;
71104;SDS011;58760;48.716;8.962;2023-06-26T09:27:54;7.63;;;4.13;;
71104;SDS011;58760;48.716;8.962;2023-06-26T09:30:20;7.28;;;4.53;;
71104;SDS011;58760;48.716;8.962;2023-06-26T09:32:45;7.93;;;4.20;;
71104;SDS011;58760;48.716;8.962;2023-06-26T09:35:11;7.88;;;3.70;;
71104;SDS011;58760;48.716;8.962;2023-06-26T09:37:37;7.07;;;4.65;;
71104;SDS011;58760;48.716;8.962;2023-06-26T09:40:02;6.63;;;4.15;;
71104;SDS011;58760;48.716;8.962;2023-06-26T09:42:29;7.70;;;4.32;;
71104;SDS011;58760;48.716;8.962;2023-06-26T09:44:55;7.15;;;4.60;;
71104;SDS011;58760;48.716;8.962;2023-06-26T09:47:20;8.63;;;4.68;;
71104;SDS011;58760;48.716;8.962;2023-06-26T09:49:46;9.50;;;5.13;;
71104;SDS011;58760;48.716;8.962;2023-06-26T09:52:15;8.55;;;4.88;;
71104;SDS011;58760;48.716;8.962;2023-06-26T09:54:45;7.13;;;4.50;;
71104;SDS011;58760;48.716;8.962;2023-06-26T09:57:11;7.93;;;4.80;;
71104;SDS011;58760;48.716;8.962;2023-06-26T09:59:39;6.97;;;4.40;;
71104;SDS011;58760;48.716;8.962;2023-06-26T10:02:05;8.73;;;4.38;;
71104;SDS011;58760;48.716;8.962;2023-06-26T10:04:31;9.10;;;4.45;;
71104;SDS011;58760;48.716;8.962;2023-06-26T10:06:58;6.78;;;4.50;;
71104;SDS011;58760;48.716;8.962;2023-06-26T10:09:26;8.63;;;4.57;;
71104;SDS011;58760;48.716;8.962;2023-06-26T10:14:19;7.45;;;4.40;;
71104;SDS011;58760;48.716;8.962;2023-06-26T10:16:46;7.13;;;4.55;;
71104;SDS011;58760;48.716;8.962;2023-06-26T10:19:14;7.28;;;5.00;;
71104;SDS011;58760;48.716;8.962;2023-06-26T10:21:46;8.75;;;5.28;;
71104;SDS011;58760;48.716;8.962;2023-06-26T10:24:11;10.32;;;4.75;;
71104;SDS011;58760;48.716;8.962;2023-06-26T10:26:39;10.70;;;5.10;;
71104;SDS011;58760;48.716;8.962;2023-06-26T10:29:09;9.40;;;5.20;;
71104;SDS011;58760;48.716;8.962;2023-06-26T10:31:35;7.25;;;5.07;;
71104;SDS011;58760;48.716;8.962;2023-06-26T10:34:03;10.10;;;4.82;;
71104;SDS011;58760;48.716;8.962;2023-06-26T10:36:29;11.23;;;5.70;;
71104;SDS011;58760;48.716;8.962;2023-06-26T10:38:56;8.48;;;5.35;;
71104;SDS011;58760;48.716;8.962;2023-06-26T10:41:24;9.48;;;5.40;;
71104;SDS011;58760;48.716;8.962;2023-06-26T10:46:24;8.63;;;4.75;;
71104;SDS011;58760;48.716;8.962;2023-06-26T10:48:56;8.45;;;5.00;;
71104;SDS011;58760;48.716;8.962;2023-06-26T10:51:24;9.38;;;5.18;;
71104;SDS011;58760;48.716;8.962;2023-06-26T10:53:53;11.40;;;5.68;;
71104;SDS011;58760;48.716;8.962;2023-06-26T10:56:20;6.90;;;4.82;;
71104;SDS011;58760;48.716;8.962;2023-06-26T10:58:45;9.00;;;5.38;;
71104;SDS011;58760;48.716;8.962;2023-06-26T11:01:19;10.48;;;5.88;;
71104;SDS011;58760;48.716;8.962;2023-06-26T11:06:23;8.63;;;5.18;;
71104;SDS011;58760;48.716;8.962;2023-06-26T11:08:49;7.40;;;5.00;;
71104;SDS011;58760;48.716;8.962;2023-06-26T11:11:16;10.68;;;5.47;;
71104;SDS011;58760;48.716;8.962;2023-06-26T11:13:42;9.43;;;5.28;;
71104;SDS011;58760;48.716;8.962;2023-06-26T11:16:10;9.60;;;4.85;;
71104;SDS011;58760;48.716;8.962;2023-06-26T11:18:37;8.95;;;5.40;;
71104;SDS011;58760;48.716;8.962;2023-06-26T11:23:31;8.90;;;5.20;;
71104;SDS011;58760;48.716;8.962;2023-06-26T11:26:12;7.95;;;5.10;;
71104;SDS011;58760;48.716;8.962;2023-06-26T11:28:38;8.60;;;5.18;;
71104;SDS011;58760;48.716;8.962;2023-06-26T11:31:03;7.30;;;5.25;;
71104;SDS011;58760;48.716;8.962;2023-06-26T11:33:29;9.73;;;5.20;;
71104;SDS011;58760;48.716;8.962;2023-06-26T11:35:54;8.38;;;5.22;;
71104;SDS011;58760;48.716;8.962;2023-06-26T11:38:20;9.55;;;5.05;;
71104;SDS011;58760;48.716;8.962;2023-06-26T11:40:46;8.90;;;5.22;;
71104;SDS011;58760;48.716;8.962;2023-06-26T11:43:13;8.43;;;5.43;;
71104;SDS011;58760;48.716;8.962;2023-06-26T11:45:40;10.23;;;5.18;;
71104;SDS011;58760;48.716;8.962;2023-06-26T11:48:05;8.75;;;5.40;;
71104;SDS011;58760;48.716;8.962;2023-06-26T11:50:31;9.40;;;5.07;;
71104;SDS011;58760;48.716;8.962;2023-06-26T11:52:57;7.57;;;5.00;;
71104;SDS011;58760;48.716;8.962;2023-06-26T11:55:23;8.18;;;4.97;;
71104;SDS011;58760;48.716;8.962;2023-06-26T11:57:52;8.85;;;4.63;;
71104;SDS011;58760;48.716;8.962;2023-06-26T12:00:18;6.88;;;4.95;;
71104;SDS011;58760;48.716;8.962;2023-06-26T12:02:45;10.43;;;5.65;;
71104;SDS011;58760;48.716;8.962;2023-06-26T12:05:11;7.65;;;4.65;;
71104;SDS011;58760;48.716;8.962;2023-06-26T12:07:46;8.60;;;5.20;;
71104;SDS011;58760;48.716;8.962;2023-06-26T12:10:13;9.13;;;4.90;;
71104;SDS011;58760;48.716;8.962;2023-06-26T12:12:40;10.98;;;4.93;;
71104;SDS011;58760;48.716;8.962;2023-06-26T12:15:06;10.55;;;4.75;;
71104;SDS011;58760;48.716;8.962;2023-06-26T12:17:33;9.02;;;4.82;;
71104;SDS011;58760;48.716;8.962;2023-06-26T12:20:04;9.63;;;5.38;;
71104;SDS011;58760;48.716;8.962;2023-06-26T12:22:34;10.30;;;4.80;;
71104;SDS011;58760;48.716;8.962;2023-06-26T12:25:00;8.32;;;4.60;;
71104;SDS011;58760;48.716;8.962;2023-06-26T12:27:27;10.55;;;5.35;;
71104;SDS011;58760;48.716;8.962;2023-06-26T12:29:53;10.52;;;4.88;;
71104;SDS011;58760;48.716;8.962;2023-06-26T12:32:19;9.52;;;5.03;;
71104;SDS011;58760;48.716;8.962;2023-06-26T12:34:47;13.07;;;5.50;;
71104;SDS011;58760;48.716;8.962;2023-06-26T12:37:14;7.53;;;5.00;;
71104;SDS011;58760;48.716;8.962;2023-06-26T12:39:47;8.80;;;4.53;;
71104;SDS011;58760;48.716;8.962;2023-06-26T12:42:17;9.93;;;4.93;;
71104;SDS011;58760;48.716;8.962;2023-06-26T12:44:44;8.57;;;4.22;;
71104;SDS011;58760;48.716;8.962;2023-06-26T12:47:10;8.10;;;4.60;;
71104;SDS011;58760;48.716;8.962;2023-06-26T12:49:39;10.73;;;5.70;;
71104;SDS011;58760;48.716;8.962;2023-06-26T12:52:07;11.32;;;5.13;;
71104;SDS011;58760;48.716;8.962;2023-06-26T12:54:36;8.98;;;4.57;;
71104;SDS011;58760;48.716;8.962;2023-06-26T12:57:03;9.00;;;5.25;;
71104;SDS011;58760;48.716;8.962;2023-06-26T12:59:29;8.13;;;4.18;;
71104;SDS011;58760;48.716;8.962;2023-06-26T13:01:55;11.40;;;4.93;;
71104;SDS011;58760;48.716;8.962;2023-06-26T13:04:20;8.02;;;4.80;;
71104;SDS011;58760;48.716;8.962;2023-06-26T13:06:46;9.10;;;4.93;;
71104;SDS011;58760;48.716;8.962;2023-06-26T13:09:11;12.30;;;5.03;;
71104;SDS011;58760;48.716;8.962;2023-06-26T13:11:37;8.85;;;4.40;;
71104;SDS011;58760;48.716;8.962;2023-06-26T13:14:02;6.00;;;4.07;;
71104;SDS011;58760;48.716;8.962;2023-06-26T13:16:28;9.10;;;4.10;;
71104;SDS011;58760;48.716;8.962;2023-06-26T13:18:54;9.57;;;4.35;;
71104;SDS011;58760;48.716;8.962;2023-06-26T13:21:20;7.50;;;4.28;;
71104;SDS011;58760;48.716;8.962;2023-06-26T13:23:46;7.63;;;4.13;;
71104;SDS011;58760;48.716;8.962;2023-06-26T13:26:11;7.30;;;4.30;;
71104;SDS011;58760;48.716;8.962;2023-06-26T13:28:36;8.65;;;3.92;;
71104;SDS011;58760;48.716;8.962;2023-06-26T13:31:02;6.82;;;3.78;;
71104;SDS011;58760;48.716;8.962;2023-06-26T13:33:28;7.18;;;4.30;;
71104;SDS011;58760;48.716;8.962;2023-06-26T13:35:54;8.55;;;4.15;;
71104;SDS011;58760;48.716;8.962;2023-06-26T13:38:22;7.57;;;4.40;;
71104;SDS011;58760;48.716;8.962;2023-06-26T13:40:52;6.47;;;4.05;;
71104;SDS011;58760;48.716;8.962;2023-06-26T13:43:18;10.93;;;4.50;;
71104;SDS011;58760;48.716;8.962;2023-06-26T13:45:43;9.02;;;4.03;;
71104;SDS011;58760;48.716;8.962;2023-06-26T13:48:09;9.00;;;4.45;;
71104;SDS011;58760;48.716;8.962;2023-06-26T13:50:34;7.78;;;3.90;;
71104;SDS011;58760;48.716;8.962;2023-06-26T13:53:00;7.35;;;3.55;;
71104;SDS011;58760;48.716;8.962;2023-06-26T13:55:25;7.60;;;3.67;;
71104;SDS011;58760;48.716;8.962;2023-06-26T13:57:51;7.47;;;3.60;;
71104;SDS011;58760;48.716;8.962;2023-06-26T14:00:16;7.93;;;3.95;;
71104;SDS011;58760;48.716;8.962;2023-06-26T14:02:45;7.18;;;3.45;;
71104;SDS011;58760;48.716;8.962;2023-06-26T14:05:11;8.95;;;3.80;;
71104;SDS011;58760;48.716;8.962;2023-06-26T14:07:36;9.02;;;3.90;;
71104;SDS011;58760;48.716;8.962;2023-06-26T14:10:03;5.85;;;3.20;;
71104;SDS011;58760;48.716;8.962;2023-06-26T14:12:30;8.52;;;3.47;;
71104;SDS011;58760;48.716;8.962;2023-06-26T14:14:55;7.25;;;3.33;;
71104;SDS011;58760;48.716;8.962;2023-06-26T14:17:21;10.93;;;2.92;;
71104;SDS011;58760;48.716;8.962;2023-06-26T14:19:49;6.57;;;3.10;;
71104;SDS011;58760;48.716;8.962;2023-06-26T14:22:14;9.18;;;3.42;;
71104;SDS011;58760;48.716;8.962;2023-06-26T14:24:40;8.15;;;3.08;;
71104;SDS011;58760;48.716;8.962;2023-06-26T14:27:05;7.70;;;2.72;;
71104;SDS011;58760;48.716;8.962;2023-06-26T14:29:31;5.63;;;2.90;;
71104;SDS011;58760;48.716;8.962;2023-06-26T14:31:56;7.35;;;3.10;;
71104;SDS011;58760;48.716;8.962;2023-06-26T14:34:22;5.18;;;2.63;;
71104;SDS011;58760;48.716;8.962;2023-06-26T14:36:47;12.07;;;2.97;;
71104;SDS011;58760;48.716;8.962;2023-06-26T14:39:12;6.35;;;2.88;;
71104;SDS011;58760;48.716;8.962;2023-06-26T14:41:38;7.88;;;3.10;;
71104;SDS011;58760;48.716;8.962;2023-06-26T14:44:03;7.53;;;2.90;;
71104;SDS011;58760;48.716;8.962;2023-06-26T14:46:29;8.45;;;3.10;;
71104;SDS011;58760;48.716;8.962;2023-06-26T14:48:55;8.43;;;3.05;;
71104;SDS011;58760;48.716;8.962;2023-06-26T14:51:21;8.52;;;2.78;;
71104;SDS011;58760;48.716;8.962;2023-06-26T14:53:47;7.32;;;3.10;;
71104;SDS011;58760;48.716;8.962;2023-06-26T14:56:12;9.52;;;2.80;;
71104;SDS011;58760;48.716;8.962;2023-06-26T14:58:38;12.23;;;3.72;;
71104;SDS011;58760;48.716;8.962;2023-06-26T15:01:03;7.78;;;3.13;;
71104;SDS011;58760;48.716;8.962;2023-06-26T15:03:29;7.30;;;3.05;;
71104;SDS011;58760;48.716;8.962;2023-06-26T15:05:54;7.93;;;3.22;;
71104;SDS011;58760;48.716;8.962;2023-06-26T15:08:19;6.65;;;3.40;;
71104;SDS011;58760;48.716;8.962;2023-06-26T15:10:45;6.13;;;3.25;;
71104;SDS011;58760;48.716;8.962;2023-06-26T15:13:10;6.22;;;3.20;;
71104;SDS011;58760;48.716;8.962;2023-06-26T15:15:35;9.02;;;3.80;;
71104;SDS011;58760;48.716;8.962;2023-06-26T15:18:01;6.82;;;3.30;;
71104;SDS011;58760;48.716;8.962;2023-06-26T15:20:26;9.75;;;3.70;;
71104;SDS011;58760;48.716;8.962;2023-06-26T15:22:52;5.78;;;3.05;;
71104;SDS011;58760;48.716;8.962;2023-06-26T15:25:18;6.13;;;3.28;;
71104;SDS011;58760;48.716;8.962;2023-06-26T15:27:43;8.02;;;3.58;;
71104;SDS011;58760;48.716;8.962;2023-06-26T15:30:09;9.15;;;4.10;;
71104;SDS011;58760;48.716;8.962;2023-06-26T15:32:34;10.40;;;4.18;;
71104;SDS011;58760;48.716;8.962;2023-06-26T15:35:00;8.23;;;3.97;;
71104;SDS011;58760;48.716;8.962;2023-06-26T15:37:25;8.30;;;3.67;;
71104;SDS011;58760;48.716;8.962;2023-06-26T15:39:50;8.45;;;3.97;;
71104;SDS011;58760;48.716;8.962;2023-06-26T15:42:16;9.77;;;4.60;;
71104;SDS011;58760;48.716;8.962;2023-06-26T15:44:41;7.50;;;4.22;;
71104;SDS011;58760;48.716;8.962;2023-06-26T15:47:06;8.15;;;4.85;;
71104;SDS011;58760;48.716;8.962;2023-06-26T15:49:32;8.35;;;4.75;;
71104;SDS011;58760;48.716;8.962;2023-06-26T15:51:57;11.02;;;4.38;;
71104;SDS011;58760;48.716;8.962;2023-06-26T15:54:22;8.43;;;4.30;;
71104;SDS011;58760;48.716;8.962;2023-06-26T15:56:50;8.40;;;4.32;;
71104;SDS011;58760;48.716;8.962;2023-06-26T15:59:15;7.53;;;4.40;;
71104;SDS011;58760;48.716;8.962;2023-06-26T16:01:43;14.18;;;5.30;;
71104;SDS011;58760;48.716;8.962;2023-06-26T16:04:11;13.63;;;5.53;;
71104;SDS011;58760;48.716;8.962;2023-06-26T16:06:37;9.95;;;5.40;;
71104;SDS011;58760;48.716;8.962;2023-06-26T16:09:02;10.45;;;5.30;;
71104;SDS011;58760;48.716;8.962;2023-06-26T16:11:28;12.55;;;5.85;;
71104;SDS011;58760;48.716;8.962;2023-06-26T16:13:53;10.50;;;4.85;;
71104;SDS011;58760;48.716;8.962;2023-06-26T16:16:20;10.38;;;5.35;;